sensor_id;sensor_type;location;lat;lon;timestamp;P1;durP1;ratioP1;P2;durP2;ratioP2
25391;SDS011;13329;48.402;11.718;2022-11-15T00:01:23;7.60;;;4.03;;
25391;SDS011;13329;48.402;11.718;2022-11-15T00:03:50;8.33;;;4.53;;
25391;SDS011;13329;48.402;11.718;2022-11-15T00:06:16;10.68;;;4.45;;
25391;SDS011;13329;48.402;11.718;2022-11-15T00:08:41;7.60;;;4.10;;
25391;SDS011;13329;48.402;11.718;2022-11-15T00:11:06;9.97;;;4.27;;
25391;SDS011;13329;48.402;11.718;2022-11-15T00:13:31;9.50;;;4.23;;
25391;SDS011;13329;48.402;11.718;2022-11-15T00:15:57;10.27;;;4.93;;
25391;SDS011;13329;48.402;11.718;2022-11-15T00:18:23;11.82;;;5.13;;
25391;SDS011;13329;48.402;11.718;2022-11-15T00:20:48;7.73;;;4.40;;
25391;SDS011;13329;48.402;11.718;2022-11-15T00:23:13;9.13;;;4.60;;
25391;SDS011;13329;48.402;11.718;2022-11-15T00:25:38;8.87;;;4.80;;
25391;SDS011;13329;48.402;11.718;2022-11-15T00:28:04;10.15;;;4.60;;
25391;SDS011;13329;48.402;11.718;2022-11-15T00:30:29;9.10;;;4.57;;
25391;SDS011;13329;48.402;11.718;2022-11-15T00:32:54;11.85;;;5.72;;
25391;SDS011;13329;48.402;11.718;2022-11-15T00:35:19;9.67;;;4.83;;
25391;SDS011;13329;48.402;11.718;2022-11-15T00:37:45;9.68;;;5.20;;
25391;SDS011;13329;48.402;11.718;2022-11-15T00:40:13;8.93;;;4.93;;
25391;SDS011;13329;48.402;11.718;2022-11-15T00:42:39;11.57;;;5.35;;
25391;SDS011;13329;48.402;11.718;2022-11-15T00:45:04;9.93;;;5.00;;
25391;SDS011;13329;48.402;11.718;2022-11-15T00:47:29;11.20;;;4.90;;
25391;SDS011;13329;48.402;11.718;2022-11-15T00:49:54;7.87;;;4.43;;
25391;SDS011;13329;48.402;11.718;2022-11-15T00:52:19;11.97;;;4.93;;
25391;SDS011;13329;48.402;11.718;2022-11-15T00:54:45;7.13;;;4.60;;
25391;SDS011;13329;48.402;11.718;2022-11-15T00:57:10;8.33;;;4.37;;
25391;SDS011;13329;48.402;11.718;2022-11-15T00:59:35;7.63;;;4.53;;
25391;SDS011;13329;48.402;11.718;2022-11-15T01:02:00;9.23;;;4.83;;
25391;SDS011;13329;48.402;11.718;2022-11-15T01:04:26;10.15;;;4.50;;
25391;SDS011;13329;48.402;11.718;2022-11-15T01:06:51;8.63;;;5.13;;
25391;SDS011;13329;48.402;11.718;2022-11-15T01:09:16;11.70;;;5.20;;
25391;SDS011;13329;48.402;11.718;2022-11-15T01:11:41;10.33;;;4.67;;
25391;SDS011;13329;48.402;11.718;2022-11-15T01:14:06;10.43;;;5.17;;
25391;SDS011;13329;48.402;11.718;2022-11-15T01:16:32;9.90;;;4.70;;
25391;SDS011;13329;48.402;11.718;2022-11-15T01:18:58;10.23;;;4.85;;
25391;SDS011;13329;48.402;11.718;2022-11-15T01:21:23;11.32;;;5.53;;
25391;SDS011;13329;48.402;11.718;2022-11-15T01:23:48;9.83;;;5.00;;
25391;SDS011;13329;48.402;11.718;2022-11-15T01:26:17;8.52;;;4.18;;
25391;SDS011;13329;48.402;11.718;2022-11-15T01:28:42;7.43;;;4.10;;
25391;SDS011;13329;48.402;11.718;2022-11-15T01:31:11;8.17;;;4.50;;
25391;SDS011;13329;48.402;11.718;2022-11-15T01:33:36;9.85;;;4.78;;
25391;SDS011;13329;48.402;11.718;2022-11-15T01:36:05;8.93;;;4.37;;
25391;SDS011;13329;48.402;11.718;2022-11-15T01:38:31;7.97;;;4.05;;
25391;SDS011;13329;48.402;11.718;2022-11-15T01:40:56;7.73;;;4.07;;
25391;SDS011;13329;48.402;11.718;2022-11-15T01:43:31;7.43;;;4.03;;
25391;SDS011;13329;48.402;11.718;2022-11-15T01:46:01;8.32;;;3.92;;
25391;SDS011;13329;48.402;11.718;2022-11-15T01:48:32;5.50;;;3.92;;
25391;SDS011;13329;48.402;11.718;2022-11-15T01:50:58;10.10;;;4.68;;
25391;SDS011;13329;48.402;11.718;2022-11-15T01:53:24;7.63;;;4.18;;
25391;SDS011;13329;48.402;11.718;2022-11-15T01:55:50;8.80;;;4.32;;
25391;SDS011;13329;48.402;11.718;2022-11-15T01:58:16;10.80;;;4.10;;
25391;SDS011;13329;48.402;11.718;2022-11-15T02:00:41;10.30;;;4.27;;
25391;SDS011;13329;48.402;11.718;2022-11-15T02:03:06;9.95;;;4.35;;
25391;SDS011;13329;48.402;11.718;2022-11-15T02:05:32;7.60;;;4.23;;
25391;SDS011;13329;48.402;11.718;2022-11-15T02:07:57;7.38;;;3.70;;
25391;SDS011;13329;48.402;11.718;2022-11-15T02:10:23;7.33;;;3.87;;
25391;SDS011;13329;48.402;11.718;2022-11-15T02:12:49;8.35;;;4.18;;
25391;SDS011;13329;48.402;11.718;2022-11-15T02:15:14;8.73;;;4.00;;
25391;SDS011;13329;48.402;11.718;2022-11-15T02:22:38;8.00;;;3.70;;
25391;SDS011;13329;48.402;11.718;2022-11-15T02:33:10;8.52;;;4.13;;
25391;SDS011;13329;48.402;11.718;2022-11-15T02:40:34;7.32;;;3.97;;
25391;SDS011;13329;48.402;11.718;2022-11-15T02:43:08;6.85;;;3.83;;
25391;SDS011;13329;48.402;11.718;2022-11-15T02:45:54;6.47;;;3.70;;
25391;SDS011;13329;48.402;11.718;2022-11-15T02:48:21;8.35;;;3.97;;
25391;SDS011;13329;48.402;11.718;2022-11-15T02:50:47;10.80;;;3.90;;
25391;SDS011;13329;48.402;11.718;2022-11-15T02:53:13;7.28;;;4.28;;
25391;SDS011;13329;48.402;11.718;2022-11-15T02:55:43;8.30;;;4.15;;
25391;SDS011;13329;48.402;11.718;2022-11-15T03:00:44;6.75;;;3.70;;
25391;SDS011;13329;48.402;11.718;2022-11-15T03:05:44;9.73;;;4.25;;
25391;SDS011;13329;48.402;11.718;2022-11-15T03:08:17;7.28;;;3.63;;
25391;SDS011;13329;48.402;11.718;2022-11-15T03:13:24;9.00;;;3.80;;
25391;SDS011;13329;48.402;11.718;2022-11-15T03:15:54;8.55;;;4.22;;
25391;SDS011;13329;48.402;11.718;2022-11-15T03:18:21;4.85;;;3.53;;
25391;SDS011;13329;48.402;11.718;2022-11-15T03:20:48;6.88;;;3.83;;
25391;SDS011;13329;48.402;11.718;2022-11-15T03:23:14;6.47;;;3.72;;
25391;SDS011;13329;48.402;11.718;2022-11-15T03:25:43;7.40;;;3.57;;
25391;SDS011;13329;48.402;11.718;2022-11-15T03:28:12;8.15;;;3.97;;
25391;SDS011;13329;48.402;11.718;2022-11-15T03:30:38;7.72;;;3.67;;
25391;SDS011;13329;48.402;11.718;2022-11-15T03:33:03;7.55;;;3.70;;
25391;SDS011;13329;48.402;11.718;2022-11-15T03:35:30;7.15;;;4.00;;
25391;SDS011;13329;48.402;11.718;2022-11-15T03:37:59;9.02;;;3.58;;
25391;SDS011;13329;48.402;11.718;2022-11-15T03:40:37;7.75;;;3.85;;
25391;SDS011;13329;48.402;11.718;2022-11-15T03:45:45;7.80;;;4.28;;
25391;SDS011;13329;48.402;11.718;2022-11-15T03:48:14;5.93;;;3.25;;
25391;SDS011;13329;48.402;11.718;2022-11-15T03:50:41;8.50;;;3.60;;
25391;SDS011;13329;48.402;11.718;2022-11-15T03:53:07;9.90;;;4.03;;
25391;SDS011;13329;48.402;11.718;2022-11-15T03:55:32;9.07;;;3.65;;
25391;SDS011;13329;48.402;11.718;2022-11-15T03:57:58;7.43;;;3.45;;
25391;SDS011;13329;48.402;11.718;2022-11-15T04:00:24;5.43;;;3.30;;
25391;SDS011;13329;48.402;11.718;2022-11-15T04:02:49;7.87;;;3.60;;
25391;SDS011;13329;48.402;11.718;2022-11-15T04:05:14;5.60;;;3.07;;
25391;SDS011;13329;48.402;11.718;2022-11-15T04:07:39;6.03;;;3.13;;
25391;SDS011;13329;48.402;11.718;2022-11-15T04:10:04;6.33;;;3.60;;
25391;SDS011;13329;48.402;11.718;2022-11-15T04:12:33;7.40;;;4.00;;
25391;SDS011;13329;48.402;11.718;2022-11-15T04:15:08;5.72;;;3.30;;
25391;SDS011;13329;48.402;11.718;2022-11-15T04:19:59;6.15;;;3.30;;
25391;SDS011;13329;48.402;11.718;2022-11-15T04:22:43;8.77;;;3.45;;
25391;SDS011;13329;48.402;11.718;2022-11-15T04:25:27;7.18;;;3.72;;
25391;SDS011;13329;48.402;11.718;2022-11-15T04:27:53;6.43;;;4.05;;
25391;SDS011;13329;48.402;11.718;2022-11-15T04:30:18;6.83;;;3.17;;
25391;SDS011;13329;48.402;11.718;2022-11-15T04:32:43;7.37;;;3.50;;
25391;SDS011;13329;48.402;11.718;2022-11-15T04:35:08;7.70;;;3.97;;
25391;SDS011;13329;48.402;11.718;2022-11-15T04:37:34;5.57;;;3.37;;
25391;SDS011;13329;48.402;11.718;2022-11-15T04:39:59;6.43;;;3.63;;
25391;SDS011;13329;48.402;11.718;2022-11-15T04:42:24;5.13;;;3.03;;
25391;SDS011;13329;48.402;11.718;2022-11-15T04:44:49;6.70;;;3.77;;
25391;SDS011;13329;48.402;11.718;2022-11-15T04:47:14;7.57;;;4.00;;
25391;SDS011;13329;48.402;11.718;2022-11-15T04:49:39;7.97;;;3.87;;
25391;SDS011;13329;48.402;11.718;2022-11-15T04:52:05;7.43;;;3.93;;
25391;SDS011;13329;48.402;11.718;2022-11-15T04:54:30;9.03;;;3.70;;
25391;SDS011;13329;48.402;11.718;2022-11-15T04:56:55;6.30;;;3.80;;
25391;SDS011;13329;48.402;11.718;2022-11-15T04:59:20;7.23;;;4.00;;
25391;SDS011;13329;48.402;11.718;2022-11-15T05:01:45;10.10;;;4.00;;
25391;SDS011;13329;48.402;11.718;2022-11-15T05:04:11;8.53;;;3.97;;
25391;SDS011;13329;48.402;11.718;2022-11-15T05:06:46;8.18;;;4.15;;
25391;SDS011;13329;48.402;11.718;2022-11-15T05:09:11;8.27;;;3.97;;
25391;SDS011;13329;48.402;11.718;2022-11-15T05:11:38;8.02;;;3.70;;
25391;SDS011;13329;48.402;11.718;2022-11-15T05:14:03;5.65;;;3.35;;
25391;SDS011;13329;48.402;11.718;2022-11-15T05:16:28;6.37;;;3.47;;
25391;SDS011;13329;48.402;11.718;2022-11-15T05:18:54;6.73;;;3.97;;
25391;SDS011;13329;48.402;11.718;2022-11-15T05:21:19;10.32;;;3.53;;
25391;SDS011;13329;48.402;11.718;2022-11-15T05:23:45;7.13;;;3.92;;
25391;SDS011;13329;48.402;11.718;2022-11-15T05:26:10;7.57;;;3.70;;
25391;SDS011;13329;48.402;11.718;2022-11-15T05:28:36;6.95;;;3.88;;
25391;SDS011;13329;48.402;11.718;2022-11-15T05:31:04;7.30;;;3.55;;
25391;SDS011;13329;48.402;11.718;2022-11-15T05:33:30;6.97;;;3.30;;
25391;SDS011;13329;48.402;11.718;2022-11-15T05:36:06;8.05;;;3.95;;
25391;SDS011;13329;48.402;11.718;2022-11-15T05:38:32;9.52;;;4.40;;
25391;SDS011;13329;48.402;11.718;2022-11-15T05:40:59;9.43;;;4.18;;
25391;SDS011;13329;48.402;11.718;2022-11-15T05:43:24;8.40;;;3.63;;
25391;SDS011;13329;48.402;11.718;2022-11-15T05:45:49;7.90;;;3.93;;
25391;SDS011;13329;48.402;11.718;2022-11-15T05:48:15;5.95;;;3.30;;
25391;SDS011;13329;48.402;11.718;2022-11-15T05:50:41;6.32;;;4.05;;
25391;SDS011;13329;48.402;11.718;2022-11-15T05:53:07;8.00;;;4.07;;
25391;SDS011;13329;48.402;11.718;2022-11-15T05:55:32;7.07;;;3.85;;
25391;SDS011;13329;48.402;11.718;2022-11-15T05:57:57;14.43;;;4.57;;
25391;SDS011;13329;48.402;11.718;2022-11-15T06:00:22;8.07;;;4.10;;
25391;SDS011;13329;48.402;11.718;2022-11-15T06:02:48;10.10;;;4.20;;
25391;SDS011;13329;48.402;11.718;2022-11-15T06:05:13;11.40;;;5.30;;
25391;SDS011;13329;48.402;11.718;2022-11-15T06:07:38;8.93;;;4.67;;
25391;SDS011;13329;48.402;11.718;2022-11-15T06:10:03;9.33;;;4.70;;
25391;SDS011;13329;48.402;11.718;2022-11-15T06:12:29;10.52;;;4.70;;
25391;SDS011;13329;48.402;11.718;2022-11-15T06:14:54;10.50;;;4.10;;
25391;SDS011;13329;48.402;11.718;2022-11-15T06:17:19;12.53;;;4.63;;
25391;SDS011;13329;48.402;11.718;2022-11-15T06:19:44;11.50;;;5.17;;
25391;SDS011;13329;48.402;11.718;2022-11-15T06:22:09;9.03;;;4.60;;
25391;SDS011;13329;48.402;11.718;2022-11-15T06:24:34;8.43;;;4.23;;
25391;SDS011;13329;48.402;11.718;2022-11-15T06:27:00;12.83;;;5.03;;
25391;SDS011;13329;48.402;11.718;2022-11-15T06:29:25;10.10;;;4.70;;
25391;SDS011;13329;48.402;11.718;2022-11-15T06:31:50;10.27;;;4.95;;
25391;SDS011;13329;48.402;11.718;2022-11-15T06:34:15;11.57;;;4.40;;
25391;SDS011;13329;48.402;11.718;2022-11-15T06:36:41;10.17;;;4.77;;
25391;SDS011;13329;48.402;11.718;2022-11-15T06:39:06;9.03;;;4.50;;
25391;SDS011;13329;48.402;11.718;2022-11-15T06:41:33;10.13;;;5.63;;
25391;SDS011;13329;48.402;11.718;2022-11-15T06:43:59;8.95;;;4.78;;
25391;SDS011;13329;48.402;11.718;2022-11-15T06:46:24;8.07;;;4.67;;
25391;SDS011;13329;48.402;11.718;2022-11-15T06:48:53;10.90;;;5.37;;
25391;SDS011;13329;48.402;11.718;2022-11-15T06:51:18;10.98;;;5.68;;
25391;SDS011;13329;48.402;11.718;2022-11-15T06:53:43;7.60;;;4.82;;
25391;SDS011;13329;48.402;11.718;2022-11-15T06:56:09;11.40;;;5.45;;
25391;SDS011;13329;48.402;11.718;2022-11-15T06:58:35;9.27;;;5.13;;
25391;SDS011;13329;48.402;11.718;2022-11-15T07:01:01;10.40;;;4.57;;
25391;SDS011;13329;48.402;11.718;2022-11-15T07:03:27;9.75;;;5.18;;
25391;SDS011;13329;48.402;11.718;2022-11-15T07:05:53;10.17;;;4.97;;
25391;SDS011;13329;48.402;11.718;2022-11-15T07:08:19;7.55;;;4.63;;
25391;SDS011;13329;48.402;11.718;2022-11-15T07:10:44;11.97;;;4.93;;
25391;SDS011;13329;48.402;11.718;2022-11-15T07:13:09;11.30;;;5.33;;
25391;SDS011;13329;48.402;11.718;2022-11-15T07:15:34;9.47;;;4.43;;
25391;SDS011;13329;48.402;11.718;2022-11-15T07:18:00;12.40;;;4.77;;
25391;SDS011;13329;48.402;11.718;2022-11-15T07:20:25;11.77;;;5.43;;
25391;SDS011;13329;48.402;11.718;2022-11-15T07:22:50;8.60;;;4.20;;
25391;SDS011;13329;48.402;11.718;2022-11-15T07:25:16;7.63;;;4.10;;
25391;SDS011;13329;48.402;11.718;2022-11-15T07:27:41;7.43;;;3.93;;
25391;SDS011;13329;48.402;11.718;2022-11-15T07:30:06;6.57;;;4.03;;
25391;SDS011;13329;48.402;11.718;2022-11-15T07:32:31;9.38;;;4.95;;
25391;SDS011;13329;48.402;11.718;2022-11-15T07:34:57;9.50;;;4.40;;
25391;SDS011;13329;48.402;11.718;2022-11-15T07:37:22;12.20;;;4.37;;
25391;SDS011;13329;48.402;11.718;2022-11-15T07:39:47;9.23;;;4.50;;
25391;SDS011;13329;48.402;11.718;2022-11-15T07:42:12;10.90;;;5.10;;
25391;SDS011;13329;48.402;11.718;2022-11-15T07:44:56;7.38;;;4.93;;
25391;SDS011;13329;48.402;11.718;2022-11-15T07:47:21;11.53;;;5.10;;
25391;SDS011;13329;48.402;11.718;2022-11-15T07:49:46;10.67;;;5.10;;
25391;SDS011;13329;48.402;11.718;2022-11-15T07:52:12;7.82;;;4.65;;
25391;SDS011;13329;48.402;11.718;2022-11-15T07:54:37;8.90;;;5.10;;
25391;SDS011;13329;48.402;11.718;2022-11-15T07:57:02;11.03;;;5.40;;
25391;SDS011;13329;48.402;11.718;2022-11-15T07:59:27;10.17;;;4.80;;
25391;SDS011;13329;48.402;11.718;2022-11-15T08:01:53;8.60;;;5.17;;
25391;SDS011;13329;48.402;11.718;2022-11-15T08:04:18;7.53;;;4.40;;
25391;SDS011;13329;48.402;11.718;2022-11-15T08:06:43;7.53;;;4.97;;
25391;SDS011;13329;48.402;11.718;2022-11-15T08:09:08;8.87;;;4.77;;
25391;SDS011;13329;48.402;11.718;2022-11-15T08:11:33;9.70;;;5.37;;
25391;SDS011;13329;48.402;11.718;2022-11-15T08:13:58;9.37;;;5.00;;
25391;SDS011;13329;48.402;11.718;2022-11-15T08:16:24;9.90;;;5.80;;
25391;SDS011;13329;48.402;11.718;2022-11-15T08:18:49;8.33;;;4.97;;
25391;SDS011;13329;48.402;11.718;2022-11-15T08:21:14;7.80;;;4.70;;
25391;SDS011;13329;48.402;11.718;2022-11-15T08:23:42;9.38;;;4.95;;
25391;SDS011;13329;48.402;11.718;2022-11-15T08:26:08;7.65;;;5.15;;
25391;SDS011;13329;48.402;11.718;2022-11-15T08:28:33;11.68;;;5.10;;
25391;SDS011;13329;48.402;11.718;2022-11-15T08:30:58;8.63;;;4.97;;
25391;SDS011;13329;48.402;11.718;2022-11-15T08:33:23;8.57;;;5.03;;
25391;SDS011;13329;48.402;11.718;2022-11-15T08:35:49;7.65;;;4.65;;
25391;SDS011;13329;48.402;11.718;2022-11-15T08:38:14;7.43;;;4.90;;
25391;SDS011;13329;48.402;11.718;2022-11-15T08:40:39;7.37;;;4.67;;
25391;SDS011;13329;48.402;11.718;2022-11-15T08:43:05;9.10;;;5.00;;
25391;SDS011;13329;48.402;11.718;2022-11-15T08:45:30;7.60;;;5.50;;
25391;SDS011;13329;48.402;11.718;2022-11-15T08:47:56;8.88;;;5.40;;
25391;SDS011;13329;48.402;11.718;2022-11-15T08:50:21;8.88;;;5.05;;
25391;SDS011;13329;48.402;11.718;2022-11-15T08:52:46;9.30;;;4.97;;
25391;SDS011;13329;48.402;11.718;2022-11-15T08:55:13;6.20;;;4.05;;
25391;SDS011;13329;48.402;11.718;2022-11-15T08:57:38;5.53;;;3.73;;
25391;SDS011;13329;48.402;11.718;2022-11-15T09:00:03;6.77;;;4.70;;
25391;SDS011;13329;48.402;11.718;2022-11-15T09:02:28;8.00;;;4.00;;
25391;SDS011;13329;48.402;11.718;2022-11-15T09:04:54;5.17;;;3.53;;
25391;SDS011;13329;48.402;11.718;2022-11-15T09:07:19;5.93;;;3.53;;
25391;SDS011;13329;48.402;11.718;2022-11-15T09:09:44;6.13;;;3.93;;
25391;SDS011;13329;48.402;11.718;2022-11-15T09:12:09;4.00;;;3.33;;
25391;SDS011;13329;48.402;11.718;2022-11-15T09:14:34;5.70;;;3.70;;
25391;SDS011;13329;48.402;11.718;2022-11-15T09:17:00;5.40;;;3.27;;
25391;SDS011;13329;48.402;11.718;2022-11-15T09:19:25;5.10;;;3.23;;
25391;SDS011;13329;48.402;11.718;2022-11-15T09:21:50;4.70;;;3.17;;
25391;SDS011;13329;48.402;11.718;2022-11-15T09:24:15;9.00;;;3.10;;
25391;SDS011;13329;48.402;11.718;2022-11-15T09:26:42;5.38;;;3.20;;
25391;SDS011;13329;48.402;11.718;2022-11-15T09:29:07;5.83;;;3.40;;
25391;SDS011;13329;48.402;11.718;2022-11-15T09:31:32;5.07;;;3.53;;
25391;SDS011;13329;48.402;11.718;2022-11-15T09:33:57;9.53;;;3.57;;
25391;SDS011;13329;48.402;11.718;2022-11-15T09:36:23;4.20;;;3.03;;
25391;SDS011;13329;48.402;11.718;2022-11-15T09:38:48;4.97;;;3.28;;
25391;SDS011;13329;48.402;11.718;2022-11-15T09:43:58;4.33;;;3.00;;
25391;SDS011;13329;48.402;11.718;2022-11-15T09:48:59;6.35;;;3.17;;
25391;SDS011;13329;48.402;11.718;2022-11-15T09:56:38;5.93;;;3.20;;
25391;SDS011;13329;48.402;11.718;2022-11-15T10:03:57;6.22;;;4.05;;
25391;SDS011;13329;48.402;11.718;2022-11-15T10:06:24;6.10;;;3.58;;
25391;SDS011;13329;48.402;11.718;2022-11-15T10:08:53;5.03;;;3.55;;
25391;SDS011;13329;48.402;11.718;2022-11-15T10:11:21;5.10;;;3.50;;
25391;SDS011;13329;48.402;11.718;2022-11-15T10:13:47;4.05;;;3.25;;
25391;SDS011;13329;48.402;11.718;2022-11-15T10:19:01;5.40;;;3.60;;
25391;SDS011;13329;48.402;11.718;2022-11-15T10:23:53;4.40;;;3.33;;
25391;SDS011;13329;48.402;11.718;2022-11-15T10:26:18;7.07;;;2.83;;
25391;SDS011;13329;48.402;11.718;2022-11-15T10:28:43;3.30;;;2.73;;
25391;SDS011;13329;48.402;11.718;2022-11-15T10:31:25;3.93;;;3.00;;
25391;SDS011;13329;48.402;11.718;2022-11-15T10:33:51;5.07;;;3.13;;
25391;SDS011;13329;48.402;11.718;2022-11-15T10:36:17;5.50;;;3.20;;
25391;SDS011;13329;48.402;11.718;2022-11-15T10:41:15;5.55;;;3.47;;
25391;SDS011;13329;48.402;11.718;2022-11-15T10:43:41;3.85;;;3.00;;
25391;SDS011;13329;48.402;11.718;2022-11-15T10:46:17;4.90;;;3.10;;
25391;SDS011;13329;48.402;11.718;2022-11-15T10:48:43;5.32;;;3.30;;
25391;SDS011;13329;48.402;11.718;2022-11-15T10:51:18;4.53;;;2.80;;
25391;SDS011;13329;48.402;11.718;2022-11-15T10:53:45;6.50;;;3.20;;
25391;SDS011;13329;48.402;11.718;2022-11-15T10:56:12;4.95;;;3.40;;
25391;SDS011;13329;48.402;11.718;2022-11-15T10:58:39;5.72;;;3.40;;
25391;SDS011;13329;48.402;11.718;2022-11-15T11:01:08;4.55;;;2.97;;
25391;SDS011;13329;48.402;11.718;2022-11-15T11:03:34;4.60;;;2.95;;
25391;SDS011;13329;48.402;11.718;2022-11-15T11:06:03;16.67;;;3.72;;
25391;SDS011;13329;48.402;11.718;2022-11-15T11:08:28;4.03;;;2.35;;
25391;SDS011;13329;48.402;11.718;2022-11-15T11:10:55;4.73;;;3.13;;
25391;SDS011;13329;48.402;11.718;2022-11-15T11:13:22;5.05;;;2.75;;
25391;SDS011;13329;48.402;11.718;2022-11-15T11:15:47;4.40;;;2.63;;
25391;SDS011;13329;48.402;11.718;2022-11-15T11:18:34;4.40;;;3.08;;
25391;SDS011;13329;48.402;11.718;2022-11-15T11:21:05;5.40;;;3.70;;
25391;SDS011;13329;48.402;11.718;2022-11-15T11:23:47;4.15;;;2.70;;
25391;SDS011;13329;48.402;11.718;2022-11-15T11:36:46;3.42;;;2.60;;
25391;SDS011;13329;48.402;11.718;2022-11-15T11:42:04;5.60;;;3.80;;
25391;SDS011;13329;48.402;11.718;2022-11-15T11:49:48;5.25;;;2.95;;
25391;SDS011;13329;48.402;11.718;2022-11-15T11:52:22;5.05;;;3.10;;
25391;SDS011;13329;48.402;11.718;2022-11-15T11:57:22;4.73;;;3.20;;
25391;SDS011;13329;48.402;11.718;2022-11-15T12:02:30;3.78;;;3.03;;
25391;SDS011;13329;48.402;11.718;2022-11-15T12:05:07;5.35;;;2.75;;
25391;SDS011;13329;48.402;11.718;2022-11-15T12:07:34;4.20;;;2.80;;
25391;SDS011;13329;48.402;11.718;2022-11-15T12:14:55;4.78;;;3.00;;
25391;SDS011;13329;48.402;11.718;2022-11-15T12:17:22;7.28;;;3.78;;
25391;SDS011;13329;48.402;11.718;2022-11-15T12:19:48;4.57;;;3.10;;
25391;SDS011;13329;48.402;11.718;2022-11-15T12:22:18;6.67;;;3.00;;
25391;SDS011;13329;48.402;11.718;2022-11-15T12:24:48;9.57;;;3.50;;
25391;SDS011;13329;48.402;11.718;2022-11-15T12:28:03;4.38;;;3.05;;
25391;SDS011;13329;48.402;11.718;2022-11-15T12:30:22;4.88;;;3.00;;
25391;SDS011;13329;48.402;11.718;2022-11-15T12:35:23;7.03;;;3.42;;
25391;SDS011;13329;48.402;11.718;2022-11-15T12:37:50;4.38;;;2.95;;
25391;SDS011;13329;48.402;11.718;2022-11-15T12:40:17;4.68;;;2.97;;
25391;SDS011;13329;48.402;11.718;2022-11-15T12:45:35;5.25;;;2.85;;
25391;SDS011;13329;48.402;11.718;2022-11-15T12:55:57;4.22;;;2.45;;
25391;SDS011;13329;48.402;11.718;2022-11-15T13:06:43;3.78;;;2.22;;
25391;SDS011;13329;48.402;11.718;2022-11-15T13:11:53;2.85;;;1.92;;
25391;SDS011;13329;48.402;11.718;2022-11-15T13:19:48;4.07;;;1.95;;
25391;SDS011;13329;48.402;11.718;2022-11-15T13:22:13;5.38;;;2.35;;
25391;SDS011;13329;48.402;11.718;2022-11-15T13:24:57;3.55;;;2.33;;
25391;SDS011;13329;48.402;11.718;2022-11-15T13:27:23;2.38;;;1.80;;
25391;SDS011;13329;48.402;11.718;2022-11-15T13:29:49;4.65;;;2.00;;
25391;SDS011;13329;48.402;11.718;2022-11-15T13:32:15;2.33;;;1.83;;
25391;SDS011;13329;48.402;11.718;2022-11-15T13:34:43;2.53;;;1.83;;
25391;SDS011;13329;48.402;11.718;2022-11-15T13:39:45;3.15;;;2.30;;
25391;SDS011;13329;48.402;11.718;2022-11-15T13:42:14;3.47;;;2.33;;
25391;SDS011;13329;48.402;11.718;2022-11-15T13:44:39;3.40;;;2.38;;
25391;SDS011;13329;48.402;11.718;2022-11-15T13:49:30;4.20;;;2.60;;
25391;SDS011;13329;48.402;11.718;2022-11-15T13:51:56;5.45;;;2.40;;
25391;SDS011;13329;48.402;11.718;2022-11-15T13:56:52;5.10;;;2.58;;
25391;SDS011;13329;48.402;11.718;2022-11-15T14:01:45;5.68;;;2.55;;
25391;SDS011;13329;48.402;11.718;2022-11-15T14:04:11;3.53;;;2.73;;
25391;SDS011;13329;48.402;11.718;2022-11-15T14:06:43;4.22;;;2.53;;
25391;SDS011;13329;48.402;11.718;2022-11-15T14:11:34;3.60;;;2.57;;
25391;SDS011;13329;48.402;11.718;2022-11-15T14:16:24;4.13;;;2.47;;
25391;SDS011;13329;48.402;11.718;2022-11-15T14:18:57;4.15;;;2.40;;
25391;SDS011;13329;48.402;11.718;2022-11-15T14:21:22;4.60;;;2.60;;
25391;SDS011;13329;48.402;11.718;2022-11-15T14:23:47;4.10;;;2.33;;
25391;SDS011;13329;48.402;11.718;2022-11-15T14:26:27;3.92;;;2.70;;
25391;SDS011;13329;48.402;11.718;2022-11-15T14:28:53;4.15;;;2.75;;
25391;SDS011;13329;48.402;11.718;2022-11-15T14:31:18;3.40;;;2.37;;
25391;SDS011;13329;48.402;11.718;2022-11-15T14:33:44;4.32;;;2.45;;
25391;SDS011;13329;48.402;11.718;2022-11-15T14:36:14;3.38;;;2.40;;
25391;SDS011;13329;48.402;11.718;2022-11-15T14:38:39;5.20;;;2.80;;
25391;SDS011;13329;48.402;11.718;2022-11-15T14:41:05;6.03;;;2.97;;
25391;SDS011;13329;48.402;11.718;2022-11-15T14:43:30;5.57;;;3.45;;
25391;SDS011;13329;48.402;11.718;2022-11-15T14:45:56;5.75;;;2.90;;
25391;SDS011;13329;48.402;11.718;2022-11-15T14:48:21;4.83;;;3.00;;
25391;SDS011;13329;48.402;11.718;2022-11-15T14:50:47;4.20;;;3.13;;
25391;SDS011;13329;48.402;11.718;2022-11-15T14:53:13;5.40;;;3.35;;
25391;SDS011;13329;48.402;11.718;2022-11-15T14:55:39;5.50;;;3.05;;
25391;SDS011;13329;48.402;11.718;2022-11-15T14:58:05;6.87;;;3.40;;
25391;SDS011;13329;48.402;11.718;2022-11-15T15:00:33;5.75;;;3.55;;
25391;SDS011;13329;48.402;11.718;2022-11-15T15:02:58;6.38;;;3.33;;
25391;SDS011;13329;48.402;11.718;2022-11-15T15:05:25;5.50;;;3.58;;
25391;SDS011;13329;48.402;11.718;2022-11-15T15:07:51;7.22;;;2.88;;
25391;SDS011;13329;48.402;11.718;2022-11-15T15:10:18;6.20;;;3.00;;
25391;SDS011;13329;48.402;11.718;2022-11-15T15:12:43;6.57;;;3.42;;
25391;SDS011;13329;48.402;11.718;2022-11-15T15:15:12;6.40;;;3.40;;
25391;SDS011;13329;48.402;11.718;2022-11-15T15:17:38;4.97;;;3.22;;
25391;SDS011;13329;48.402;11.718;2022-11-15T15:20:03;5.73;;;3.73;;
25391;SDS011;13329;48.402;11.718;2022-11-15T15:22:28;6.88;;;3.55;;
25391;SDS011;13329;48.402;11.718;2022-11-15T15:24:54;5.07;;;3.15;;
25391;SDS011;13329;48.402;11.718;2022-11-15T15:27:20;5.67;;;3.33;;
25391;SDS011;13329;48.402;11.718;2022-11-15T15:29:45;8.30;;;3.10;;
25391;SDS011;13329;48.402;11.718;2022-11-15T15:32:10;6.63;;;2.90;;
25391;SDS011;13329;48.402;11.718;2022-11-15T15:34:35;5.38;;;2.95;;
25391;SDS011;13329;48.402;11.718;2022-11-15T15:39:45;5.78;;;3.25;;
25391;SDS011;13329;48.402;11.718;2022-11-15T15:42:10;4.57;;;2.60;;
25391;SDS011;13329;48.402;11.718;2022-11-15T15:44:35;6.73;;;3.47;;
25391;SDS011;13329;48.402;11.718;2022-11-15T15:47:00;8.57;;;3.37;;
25391;SDS011;13329;48.402;11.718;2022-11-15T15:49:25;7.00;;;3.03;;
25391;SDS011;13329;48.402;11.718;2022-11-15T15:51:50;6.17;;;3.00;;
25391;SDS011;13329;48.402;11.718;2022-11-15T15:54:16;3.67;;;2.33;;
25391;SDS011;13329;48.402;11.718;2022-11-15T15:56:41;5.47;;;2.30;;
25391;SDS011;13329;48.402;11.718;2022-11-15T15:59:06;4.60;;;2.50;;
25391;SDS011;13329;48.402;11.718;2022-11-15T16:01:31;5.33;;;2.83;;
25391;SDS011;13329;48.402;11.718;2022-11-15T16:03:56;4.67;;;2.37;;
25391;SDS011;13329;48.402;11.718;2022-11-15T16:06:35;5.67;;;2.93;;
25391;SDS011;13329;48.402;11.718;2022-11-15T16:09:01;5.88;;;2.75;;
25391;SDS011;13329;48.402;11.718;2022-11-15T16:11:26;3.10;;;2.03;;
25391;SDS011;13329;48.402;11.718;2022-11-15T16:13:51;5.27;;;2.43;;
25391;SDS011;13329;48.402;11.718;2022-11-15T16:16:16;4.87;;;2.97;;
25391;SDS011;13329;48.402;11.718;2022-11-15T16:18:42;6.18;;;3.03;;
25391;SDS011;13329;48.402;11.718;2022-11-15T16:21:07;9.60;;;2.87;;
25391;SDS011;13329;48.402;11.718;2022-11-15T16:23:32;8.93;;;3.20;;
25391;SDS011;13329;48.402;11.718;2022-11-15T16:25:57;6.10;;;3.17;;
25391;SDS011;13329;48.402;11.718;2022-11-15T16:30:48;5.67;;;2.70;;
25391;SDS011;13329;48.402;11.718;2022-11-15T16:33:14;5.50;;;2.65;;
25391;SDS011;13329;48.402;11.718;2022-11-15T16:35:39;7.38;;;2.88;;
25391;SDS011;13329;48.402;11.718;2022-11-15T16:38:04;4.97;;;2.40;;
25391;SDS011;13329;48.402;11.718;2022-11-15T16:40:33;5.13;;;2.70;;
25391;SDS011;13329;48.402;11.718;2022-11-15T16:42:58;4.00;;;2.20;;